createdAt,value
2018-04-22T00:00:41.277Z,13.30
2018-04-22T00:03:09.708Z,13.34
2018-04-22T00:05:38.172Z,13.38
2018-04-22T00:08:06.589Z,13.34
2018-04-22T00:10:35.005Z,13.22
2018-04-22T00:13:03.469Z,13.25
2018-04-22T00:15:31.885Z,13.19
2018-04-22T00:18:00.300Z,13.03
2018-04-22T00:20:28.765Z,13.00
2018-04-22T00:22:57.180Z,12.99
2018-04-22T00:25:25.649Z,12.94
2018-04-22T00:27:54.126Z,13.01
2018-04-22T00:30:22.540Z,12.91
2018-04-22T00:32:50.963Z,12.65
2018-04-22T00:35:19.429Z,12.55
2018-04-22T00:37:47.853Z,12.72
2018-04-22T00:40:16.282Z,12.79
2018-04-22T00:42:44.742Z,12.80
2018-04-22T00:45:13.153Z,12.75
2018-04-22T00:47:41.575Z,12.61
2018-04-22T00:50:10.044Z,12.52
2018-04-22T00:52:38.464Z,12.34
2018-04-22T00:55:06.913Z,12.46
2018-04-22T00:57:35.372Z,12.53
2018-04-22T01:00:03.833Z,12.52
2018-04-22T01:02:32.264Z,12.39
2018-04-22T01:05:00.735Z,12.45
2018-04-22T01:07:29.152Z,12.23
2018-04-22T01:09:57.569Z,12.24
2018-04-22T01:12:26.041Z,12.06
2018-04-22T01:14:54.465Z,11.94
2018-04-22T01:17:22.889Z,12.06
2018-04-22T01:19:51.377Z,12.06
2018-04-22T01:22:19.788Z,11.91
2018-04-22T01:24:48.209Z,12.06
2018-04-22T01:27:16.673Z,11.90
2018-04-22T01:29:45.102Z,11.64
2018-04-22T01:32:13.541Z,11.57
2018-04-22T01:34:42.034Z,11.74
2018-04-22T01:37:10.462Z,11.93
2018-04-22T01:39:38.888Z,11.79
2018-04-22T01:42:07.347Z,11.82
2018-04-22T01:44:36.257Z,11.63
2018-04-22T01:47:04.685Z,11.61
2018-04-22T01:49:33.167Z,11.69
2018-04-22T01:52:01.597Z,11.68
2018-04-22T01:54:30.022Z,11.67
2018-04-22T01:56:58.493Z,11.69
2018-04-22T01:59:26.920Z,11.72
2018-04-22T02:01:55.337Z,11.53
2018-04-22T02:04:23.803Z,11.54
2018-04-22T02:06:52.234Z,11.70
2018-04-22T02:09:20.672Z,11.70
2018-04-22T02:11:49.145Z,11.72
2018-04-22T02:14:17.560Z,11.63
2018-04-22T02:16:45.985Z,11.45
2018-04-22T02:19:14.466Z,11.28
2018-04-22T02:21:42.891Z,11.17
2018-04-22T02:24:11.304Z,11.26
2018-04-22T02:26:39.791Z,11.29
2018-04-22T02:29:08.215Z,11.35
2018-04-22T02:31:36.652Z,11.43
2018-04-22T02:34:05.145Z,11.38
2018-04-22T02:36:33.555Z,11.24
2018-04-22T02:39:01.992Z,11.29
2018-04-22T02:41:30.489Z,11.34
2018-04-22T02:43:58.910Z,11.41
2018-04-22T02:46:27.317Z,11.32
2018-04-22T02:48:55.816Z,11.32
2018-04-22T02:51:24.255Z,11.25
2018-04-22T02:53:52.672Z,11.26
2018-04-22T02:56:21.164Z,11.22
2018-04-22T02:58:49.583Z,11.20
2018-04-22T03:01:18.013Z,10.92
2018-04-22T03:03:46.492Z,10.93
2018-04-22T03:06:14.930Z,10.96
2018-04-22T03:08:43.348Z,10.81
2018-04-22T03:11:11.804Z,10.61
2018-04-22T03:13:40.218Z,10.82
2018-04-22T03:16:08.632Z,10.81
2018-04-22T03:18:37.104Z,10.83
2018-04-22T03:21:05.525Z,10.85
2018-04-22T03:23:33.948Z,10.68
2018-04-22T03:26:02.412Z,10.63
2018-04-22T03:28:30.845Z,10.67
2018-04-22T03:30:59.269Z,10.86
2018-04-22T03:33:27.732Z,10.94
2018-04-22T03:35:56.156Z,10.85
2018-04-22T03:38:24.585Z,10.77
2018-04-22T03:40:53.060Z,10.85
2018-04-22T03:43:21.484Z,10.72
2018-04-22T03:45:49.911Z,10.70
2018-04-22T03:48:18.407Z,10.80
2018-04-22T03:50:46.821Z,10.73
2018-04-22T03:53:15.244Z,10.67
2018-04-22T03:55:43.713Z,10.73
2018-04-22T03:58:12.131Z,10.79
2018-04-22T04:00:40.561Z,10.80
2018-04-22T04:03:09.029Z,10.56
2018-04-22T04:05:37.445Z,10.45
2018-04-22T04:08:05.868Z,10.35
2018-04-22T04:10:34.330Z,10.51
2018-04-22T04:13:02.754Z,10.56
2018-04-22T04:15:31.174Z,10.59
2018-04-22T04:21:23.485Z,10.60
2018-04-22T04:27:25.480Z,10.55
2018-04-22T04:29:53.949Z,10.54
2018-04-22T04:32:22.410Z,10.55
2018-04-22T04:34:50.829Z,10.53
2018-04-22T04:37:19.312Z,10.51
2018-04-22T04:39:47.733Z,10.38
2018-04-22T04:42:16.149Z,10.36
2018-04-22T04:44:44.623Z,10.40
2018-04-22T04:47:13.055Z,10.47
2018-04-22T04:49:41.478Z,10.46
2018-04-22T04:52:09.928Z,10.50
2018-04-22T04:54:38.368Z,10.50
2018-04-22T04:57:06.792Z,10.53
2018-04-22T04:59:35.268Z,10.59
2018-04-22T05:02:03.725Z,10.55
2018-04-22T05:04:32.144Z,10.62
2018-04-22T05:07:00.616Z,10.57
2018-04-22T05:09:29.025Z,10.59
2018-04-22T05:11:57.444Z,10.60
2018-04-22T05:14:25.924Z,10.66
2018-04-22T05:16:54.345Z,10.67
2018-04-22T05:19:22.779Z,10.72
2018-04-22T05:21:51.237Z,10.76
2018-04-22T05:24:20.049Z,10.86
2018-04-22T05:26:48.469Z,10.90
2018-04-22T05:29:16.929Z,10.96
2018-04-22T05:31:45.351Z,11.03
2018-04-22T05:34:13.766Z,11.13
2018-04-22T05:36:42.233Z,11.17
2018-04-22T05:39:10.644Z,11.26
2018-04-22T05:41:39.066Z,11.39
2018-04-22T05:44:07.548Z,11.49
2018-04-22T05:46:35.972Z,11.63
2018-04-22T05:49:04.388Z,11.75
2018-04-22T05:51:32.844Z,11.87
2018-04-22T05:54:01.265Z,12.02
2018-04-22T05:56:29.676Z,12.16
2018-04-22T05:58:58.149Z,12.29
2018-04-22T06:01:26.569Z,12.37
2018-04-22T06:03:54.987Z,12.38
2018-04-22T06:06:23.462Z,12.52
2018-04-22T06:08:51.881Z,12.68
2018-04-22T06:11:20.345Z,12.81
2018-04-22T06:13:48.808Z,12.96
2018-04-22T06:16:17.249Z,13.10
2018-04-22T06:18:45.668Z,13.17
2018-04-22T06:21:14.128Z,13.32
2018-04-22T06:23:42.548Z,13.40
2018-04-22T06:26:10.980Z,13.48
2018-04-22T06:28:39.444Z,13.60
2018-04-22T06:31:07.879Z,13.72
2018-04-22T06:33:36.328Z,13.81
2018-04-22T06:36:04.817Z,13.86
2018-04-22T06:38:33.234Z,13.98
2018-04-22T06:41:01.644Z,14.08
2018-04-22T06:43:30.104Z,14.19
2018-04-22T06:45:58.530Z,14.30
2018-04-22T06:48:26.940Z,14.41
2018-04-22T06:50:55.408Z,14.49
2018-04-22T06:53:23.825Z,14.68
2018-04-22T06:55:52.260Z,14.79
2018-04-22T06:58:20.724Z,14.90
2018-04-22T07:00:49.155Z,14.96
2018-04-22T07:03:17.580Z,14.93
2018-04-22T07:05:46.064Z,15.01
2018-04-22T07:08:14.495Z,15.05
2018-04-22T07:10:43.232Z,15.09
2018-04-22T07:13:11.705Z,15.24
2018-04-22T07:15:40.154Z,15.31
2018-04-22T07:18:08.565Z,15.39
2018-04-22T07:20:37.046Z,15.51
2018-04-22T07:23:05.484Z,15.60
2018-04-22T07:25:33.914Z,15.67
2018-04-22T07:28:02.376Z,15.83
2018-04-22T07:30:30.796Z,15.92
2018-04-22T07:32:59.201Z,16.02
2018-04-22T07:35:27.662Z,16.06
2018-04-22T07:37:56.188Z,16.16
2018-04-22T07:40:24.633Z,16.23
2018-04-22T07:42:53.101Z,16.40
2018-04-22T07:45:21.518Z,16.51
2018-04-22T07:47:49.936Z,16.56
2018-04-22T07:50:18.389Z,16.68
2018-04-22T07:52:46.806Z,16.84
2018-04-22T07:55:15.229Z,16.94
2018-04-22T07:57:43.703Z,17.17
2018-04-22T08:00:12.356Z,17.42
2018-04-22T08:02:40.792Z,17.49
2018-04-22T08:05:09.303Z,17.54
2018-04-22T08:07:37.721Z,17.73
2018-04-22T08:10:06.189Z,17.93
2018-04-22T08:12:34.652Z,17.98
2018-04-22T08:15:03.093Z,17.94
2018-04-22T08:17:31.567Z,17.93
2018-04-22T08:20:00.105Z,18.03
2018-04-22T08:22:28.543Z,18.14
2018-04-22T08:24:57.077Z,18.16
2018-04-22T08:27:25.553Z,18.16
2018-04-22T08:29:54.000Z,18.13
2018-04-22T08:32:22.414Z,18.05
2018-04-22T08:34:50.890Z,17.92
2018-04-22T08:37:19.315Z,17.86
2018-04-22T08:39:47.742Z,17.82
2018-04-22T08:42:16.194Z,17.78
2018-04-22T08:44:44.616Z,17.67
2018-04-22T08:47:13.112Z,17.60
2018-04-22T08:49:41.564Z,17.63
2018-04-22T08:52:10.054Z,17.52
2018-04-22T08:54:38.472Z,17.57
2018-04-22T08:57:06.921Z,17.56
2018-04-22T08:59:35.347Z,17.63
2018-04-22T09:02:03.766Z,17.74
2018-04-22T09:04:32.556Z,17.80
2018-04-22T09:07:00.977Z,17.94
2018-04-22T09:09:29.402Z,18.19
2018-04-22T09:11:57.876Z,18.33
2018-04-22T09:14:26.302Z,18.48
2018-04-22T09:16:54.742Z,18.55
2018-04-22T09:19:23.219Z,18.59
2018-04-22T09:21:51.640Z,18.70
2018-04-22T09:24:20.072Z,18.77
2018-04-22T09:26:48.562Z,18.83
2018-04-22T09:29:17.025Z,18.86
2018-04-22T09:31:45.480Z,19.08
2018-04-22T09:34:13.929Z,19.49
2018-04-22T09:36:42.357Z,19.89
2018-04-22T09:39:10.818Z,20.15
2018-04-22T09:41:39.289Z,20.16
2018-04-22T09:44:07.707Z,20.13
2018-04-22T09:46:36.136Z,20.35
2018-04-22T09:49:04.613Z,20.64
2018-04-22T09:51:33.037Z,20.96
2018-04-22T09:54:01.489Z,21.24
2018-04-22T09:56:29.965Z,21.33
2018-04-22T09:58:58.389Z,21.37
2018-04-22T10:01:32.533Z,21.38
2018-04-22T10:04:00.973Z,21.30
2018-04-22T10:06:29.388Z,21.30
2018-04-22T10:08:57.856Z,21.41
2018-04-22T10:11:26.281Z,21.39
2018-04-22T10:13:54.697Z,21.27
2018-04-22T10:16:23.173Z,21.17
2018-04-22T10:18:51.598Z,21.14
2018-04-22T10:21:20.057Z,21.17
2018-04-22T10:23:48.558Z,21.18
2018-04-22T10:26:17.017Z,21.23
2018-04-22T10:28:45.444Z,21.29
2018-04-22T10:31:13.906Z,21.31
2018-04-22T10:33:42.340Z,21.29
2018-04-22T10:36:10.808Z,21.26
2018-04-22T10:38:39.277Z,21.27
2018-04-22T10:41:07.704Z,21.27
2018-04-22T10:43:36.129Z,21.29
2018-04-22T10:46:04.593Z,21.40
2018-04-22T10:48:33.014Z,21.49
2018-04-22T10:51:01.430Z,21.73
2018-04-22T10:53:29.925Z,22.06
2018-04-22T10:55:58.345Z,22.33
2018-04-22T10:58:26.780Z,22.56
2018-04-22T11:00:55.248Z,22.74
2018-04-22T11:03:23.672Z,22.56
2018-04-22T11:05:52.132Z,22.32
2018-04-22T11:08:20.600Z,22.41
2018-04-22T11:10:49.069Z,22.68
2018-04-22T11:13:17.501Z,22.99
2018-04-22T11:15:46.017Z,23.12
2018-04-22T11:18:14.439Z,23.20
2018-04-22T11:20:42.872Z,23.24
2018-04-22T11:23:11.340Z,23.30
2018-04-22T11:25:39.761Z,23.39
2018-04-22T11:28:08.199Z,23.33
2018-04-22T11:30:36.793Z,23.41
2018-04-22T11:33:05.216Z,23.56
2018-04-22T11:35:33.657Z,23.77
2018-04-22T11:38:02.164Z,23.91
2018-04-22T11:40:30.589Z,23.98
2018-04-22T11:42:59.032Z,24.04
2018-04-22T11:45:27.512Z,24.12
2018-04-22T11:47:55.929Z,24.18
2018-04-22T11:50:24.348Z,24.35
2018-04-22T11:52:52.816Z,24.59
2018-04-22T11:55:21.243Z,24.60
2018-04-22T11:57:49.672Z,24.69
2018-04-22T12:00:18.204Z,24.81
2018-04-22T12:02:46.656Z,24.99
2018-04-22T12:05:15.119Z,25.28
2018-04-22T12:07:43.593Z,25.36
2018-04-22T12:10:12.020Z,25.29
2018-04-22T12:12:40.454Z,25.34
2018-04-22T12:15:08.940Z,25.44
2018-04-22T12:17:37.372Z,25.61
2018-04-22T12:20:05.814Z,25.73
2018-04-22T12:22:34.284Z,25.73
2018-04-22T12:25:02.728Z,25.84
2018-04-22T12:27:31.180Z,26.03
2018-04-22T12:29:59.652Z,26.29
2018-04-22T12:32:28.087Z,26.39
2018-04-22T12:34:56.536Z,26.37
2018-04-22T12:37:25.017Z,26.50
2018-04-22T12:39:53.438Z,26.53
2018-04-22T12:42:21.880Z,26.67
2018-04-22T12:44:50.356Z,26.66
2018-04-22T12:47:18.797Z,26.67
2018-04-22T12:49:47.221Z,26.65
2018-04-22T12:52:15.704Z,26.81
2018-04-22T12:54:44.125Z,26.86
2018-04-22T12:57:12.554Z,26.91
2018-04-22T12:59:41.017Z,27.08
2018-04-22T13:02:09.440Z,27.11
2018-04-22T13:04:37.884Z,27.16
2018-04-22T13:07:06.364Z,27.24
2018-04-22T13:09:34.787Z,27.25
2018-04-22T13:12:03.233Z,27.18
2018-04-22T13:14:31.703Z,27.15
2018-04-22T13:17:00.128Z,27.16
2018-04-22T13:19:28.557Z,26.99
2018-04-22T13:21:57.016Z,26.92
2018-04-22T13:24:25.467Z,26.75
2018-04-22T13:26:53.905Z,26.62
2018-04-22T13:29:22.390Z,26.62
2018-04-22T13:31:51.348Z,26.54
2018-04-22T13:34:19.776Z,26.63
2018-04-22T13:36:48.240Z,27.04
2018-04-22T13:39:16.677Z,27.28
2018-04-22T13:41:45.112Z,27.38
2018-04-22T13:44:13.599Z,27.18
2018-04-22T13:46:42.113Z,26.99
2018-04-22T13:49:10.539Z,26.88
2018-04-22T13:51:39.019Z,27.01
2018-04-22T13:54:07.466Z,27.15
2018-04-22T13:56:35.902Z,27.30
2018-04-22T13:59:04.469Z,27.46
2018-04-22T14:01:32.909Z,27.41
2018-04-22T14:04:01.341Z,27.51
2018-04-22T14:06:29.944Z,27.56
2018-04-22T14:08:58.380Z,27.65
2018-04-22T14:11:26.810Z,27.76
2018-04-22T14:13:55.297Z,27.73
2018-04-22T14:16:23.753Z,27.70
2018-04-22T14:18:52.171Z,27.63
2018-04-22T14:21:20.651Z,27.58
2018-04-22T14:23:49.069Z,27.57
2018-04-22T14:26:17.496Z,27.63
2018-04-22T14:28:45.976Z,27.60
2018-04-22T14:31:14.404Z,27.52
2018-04-22T14:33:42.841Z,27.43
2018-04-22T14:36:11.360Z,27.28
2018-04-22T14:38:39.785Z,27.07
2018-04-22T14:41:08.209Z,27.06
2018-04-22T14:43:36.676Z,27.04
2018-04-22T14:46:13.928Z,26.98
2018-04-22T14:48:54.142Z,27.08
2018-04-22T14:51:22.557Z,27.18
2018-04-22T14:53:50.983Z,27.25
2018-04-22T14:56:19.453Z,27.33
2018-04-22T14:58:47.864Z,27.44
2018-04-22T15:01:16.282Z,27.30
2018-04-22T15:03:44.736Z,27.39
2018-04-22T15:06:13.173Z,27.29
2018-04-22T15:08:41.613Z,27.27
2018-04-22T15:11:10.076Z,27.26
2018-04-22T15:13:38.502Z,27.15
2018-04-22T15:16:06.938Z,27.10
2018-04-22T15:18:35.407Z,27.12
2018-04-22T15:21:03.922Z,27.04
2018-04-22T15:23:32.337Z,27.02
2018-04-22T15:26:00.784Z,27.01
2018-04-22T15:28:29.452Z,26.99
2018-04-22T15:30:58.146Z,26.83
2018-04-22T15:33:26.628Z,26.86
2018-04-22T15:35:55.149Z,26.76
2018-04-22T15:38:23.621Z,26.60
2018-04-22T15:40:52.307Z,26.57
2018-04-22T15:43:20.753Z,26.56
2018-04-22T15:45:49.174Z,26.63
2018-04-22T15:48:17.632Z,26.56
2018-04-22T15:50:46.043Z,26.54
2018-04-22T15:53:14.469Z,26.45
2018-04-22T15:55:42.995Z,26.39
2018-04-22T15:58:11.750Z,26.32
2018-04-22T16:00:40.441Z,26.43
2018-04-22T16:03:09.185Z,26.40
2018-04-22T16:05:37.644Z,26.46
2018-04-22T16:08:06.325Z,26.46
2018-04-22T16:10:34.848Z,26.30
2018-04-22T16:13:03.268Z,26.16
2018-04-22T16:15:31.864Z,26.13
2018-04-22T16:18:00.327Z,26.00
2018-04-22T16:20:28.736Z,25.96
2018-04-22T16:22:57.157Z,26.02
2018-04-22T16:25:25.612Z,25.96
2018-04-22T16:27:54.031Z,25.79
2018-04-22T16:30:22.448Z,25.85
2018-04-22T16:32:50.905Z,25.73
2018-04-22T16:35:19.373Z,25.72
2018-04-22T16:37:47.769Z,25.69
2018-04-22T16:40:16.229Z,25.68
2018-04-22T16:42:44.671Z,25.57
2018-04-22T16:45:13.088Z,25.58
2018-04-22T16:47:41.553Z,25.50
2018-04-22T16:50:09.980Z,25.51
2018-04-22T16:52:38.395Z,25.58
2018-04-22T16:55:06.870Z,25.56
2018-04-22T16:57:35.277Z,25.40
2018-04-22T17:00:03.740Z,25.30
2018-04-22T17:02:32.200Z,25.21
2018-04-22T17:05:00.621Z,25.12
2018-04-22T17:07:29.063Z,25.06
2018-04-22T17:09:57.544Z,24.98
2018-04-22T17:12:25.985Z,24.90
2018-04-22T17:14:54.462Z,24.88
2018-04-22T17:17:22.932Z,24.79
2018-04-22T17:19:51.348Z,24.70
2018-04-22T17:22:19.766Z,24.46
2018-04-22T17:24:48.241Z,24.23
2018-04-22T17:27:16.652Z,24.07
2018-04-22T17:29:45.064Z,22.40
2018-04-22T17:32:13.933Z,19.21
2018-04-22T17:34:42.351Z,17.51
2018-04-22T17:37:11.473Z,16.83
2018-04-22T17:39:39.938Z,16.72
2018-04-22T17:42:08.349Z,16.74
2018-04-22T17:44:36.761Z,16.81
2018-04-22T17:47:05.227Z,17.05
2018-04-22T17:49:33.647Z,17.09
2018-04-22T17:52:02.072Z,17.20
2018-04-22T17:54:30.534Z,17.24
2018-04-22T17:56:58.953Z,17.30
2018-04-22T17:59:27.359Z,17.46
2018-04-22T18:01:55.804Z,17.46
2018-04-22T18:04:24.208Z,17.55
2018-04-22T18:06:52.608Z,17.67
2018-04-22T18:09:21.073Z,17.83
2018-04-22T18:11:49.489Z,17.94
2018-04-22T18:14:17.896Z,18.03
2018-04-22T18:16:46.380Z,18.07
2018-04-22T18:19:14.796Z,17.96
2018-04-22T18:21:43.206Z,17.86
2018-04-22T18:24:11.671Z,17.73
2018-04-22T18:26:40.088Z,17.58
2018-04-22T18:29:08.493Z,17.52
2018-04-22T18:31:36.964Z,17.64
2018-04-22T18:34:05.389Z,17.72
2018-04-22T18:36:34.232Z,17.65
2018-04-22T18:39:02.676Z,17.80
2018-04-22T18:41:31.096Z,17.75
2018-04-22T18:43:59.496Z,17.83
2018-04-22T18:46:27.958Z,17.82
2018-04-22T18:48:56.372Z,17.83
2018-04-22T18:51:24.792Z,17.77
2018-04-22T18:53:53.257Z,17.70
2018-04-22T18:56:21.687Z,17.52
2018-04-22T18:58:50.100Z,17.38
2018-04-22T19:01:18.544Z,17.32
2018-04-22T19:03:46.949Z,17.38
2018-04-22T19:06:15.360Z,17.42
2018-04-22T19:08:43.820Z,17.44
2018-04-22T19:11:12.220Z,17.38
2018-04-22T19:13:40.627Z,17.41
2018-04-22T19:16:09.076Z,17.38
2018-04-22T19:18:37.489Z,17.47
2018-04-22T19:21:05.893Z,17.52
2018-04-22T19:23:34.348Z,17.57
2018-04-22T19:26:02.760Z,17.60
2018-04-22T19:31:05.797Z,17.68
2018-04-22T19:33:34.202Z,17.66
2018-04-22T19:36:02.613Z,17.62
2018-04-22T19:38:31.062Z,17.55
2018-04-22T19:40:59.469Z,17.60
2018-04-22T19:43:27.873Z,17.61
2018-04-22T19:45:56.308Z,17.45
2018-04-22T19:48:24.721Z,17.69
2018-04-22T19:50:53.129Z,17.63
2018-04-22T19:53:21.589Z,17.65
2018-04-22T19:55:50.004Z,17.63
2018-04-22T19:58:18.404Z,17.62
2018-04-22T20:00:46.852Z,17.55
2018-04-22T20:03:15.255Z,17.60
2018-04-22T20:05:43.652Z,17.56
2018-04-22T20:08:12.117Z,17.56
2018-04-22T20:10:40.538Z,17.59
2018-04-22T20:13:08.943Z,17.50
2018-04-22T20:15:37.481Z,17.34
2018-04-22T20:18:05.886Z,17.37
2018-04-22T20:20:34.290Z,17.33
2018-04-22T20:23:02.740Z,17.38
2018-04-22T20:25:31.153Z,17.28
2018-04-22T20:27:59.567Z,17.27
2018-04-22T20:30:28.019Z,17.24
2018-04-22T20:32:56.433Z,17.26
2018-04-22T20:35:24.840Z,17.18
2018-04-22T20:37:53.296Z,17.15
2018-04-22T20:40:21.710Z,17.14
2018-04-22T20:42:50.124Z,17.02
2018-04-22T20:45:18.576Z,17.01
2018-04-22T20:47:46.985Z,17.09
2018-04-22T20:50:15.404Z,17.09
2018-04-22T20:52:43.864Z,17.14
2018-04-22T20:55:12.284Z,17.22
2018-04-22T20:57:40.705Z,17.21
2018-04-22T21:00:09.158Z,17.20
2018-04-22T21:02:37.560Z,17.17
2018-04-22T21:05:05.980Z,17.13
2018-04-22T21:07:34.444Z,17.17
2018-04-22T21:10:02.871Z,17.17
2018-04-22T21:12:31.284Z,17.09
2018-04-22T21:14:59.742Z,17.03
2018-04-22T21:17:28.156Z,16.97
2018-04-22T21:19:56.573Z,16.97
2018-04-22T21:22:25.024Z,16.90
2018-04-22T21:24:53.439Z,16.95
2018-04-22T21:27:21.857Z,16.95
2018-04-22T21:29:50.315Z,16.94
2018-04-22T21:32:18.726Z,16.95
2018-04-22T21:34:47.137Z,16.94
2018-04-22T21:37:15.615Z,16.99
2018-04-22T21:39:44.032Z,17.10
2018-04-22T21:42:12.432Z,17.11
2018-04-22T21:44:40.877Z,17.10
2018-04-22T21:47:09.299Z,17.07
2018-04-22T21:49:37.718Z,17.08
2018-04-22T21:52:06.184Z,17.12
2018-04-22T21:54:34.592Z,17.07
2018-04-22T21:57:03.000Z,17.01
2018-04-22T21:59:31.455Z,16.95
2018-04-22T22:01:59.847Z,16.89
2018-04-22T22:04:28.304Z,16.87
2018-04-22T22:06:56.736Z,16.80
2018-04-22T22:09:25.202Z,16.75
2018-04-22T22:11:53.605Z,16.73
2018-04-22T22:14:22.053Z,16.70
2018-04-22T22:16:50.458Z,16.75
2018-04-22T22:19:18.900Z,16.73
2018-04-22T22:21:47.348Z,16.67
2018-04-22T22:24:15.747Z,16.63
2018-04-22T22:26:44.144Z,16.60
2018-04-22T22:29:12.594Z,16.53
2018-04-22T22:31:41.004Z,16.51
2018-04-22T22:34:09.412Z,16.49
2018-04-22T22:36:37.856Z,16.54
2018-04-22T22:39:06.298Z,16.57
2018-04-22T22:41:34.717Z,16.47
2018-04-22T22:44:03.165Z,16.52
2018-04-22T22:46:31.591Z,16.45
2018-04-22T22:49:00.004Z,16.46
2018-04-22T22:51:28.454Z,16.42
2018-04-22T22:53:56.866Z,16.40
2018-04-22T22:56:25.285Z,16.36
2018-04-22T22:58:53.732Z,16.32
2018-04-22T23:01:22.136Z,16.19
2018-04-22T23:03:50.544Z,16.16
2018-04-22T23:06:18.987Z,16.19
2018-04-22T23:08:47.388Z,16.18
2018-04-22T23:11:15.804Z,16.12
2018-04-22T23:13:44.251Z,16.12
2018-04-22T23:16:12.661Z,16.07
2018-04-22T23:18:41.064Z,16.06
2018-04-22T23:21:09.514Z,16.05
2018-04-22T23:23:37.917Z,16.06
2018-04-22T23:26:06.323Z,16.10
2018-04-22T23:28:34.768Z,16.10
2018-04-22T23:31:03.171Z,16.13
2018-04-22T23:33:31.576Z,16.11
2018-04-22T23:36:00.025Z,16.06
2018-04-22T23:38:28.433Z,15.97
2018-04-22T23:40:56.841Z,16.01
2018-04-22T23:43:25.296Z,16.00
2018-04-22T23:45:53.709Z,15.99
2018-04-22T23:48:22.124Z,16.04
2018-04-22T23:50:50.571Z,15.99
2018-04-22T23:53:18.988Z,15.99
2018-04-22T23:55:47.394Z,15.95
2018-04-22T23:58:15.840Z,15.90
